sensor_id;sensor_type;location;lat;lon;timestamp;pressure;altitude;pressure_sealevel;temperature;humidity
18813;BME280;9534;51.140;6.296;2023-05-22T00:03:40;100423.25;;;17.98;100.00
18813;BME280;9534;51.140;6.296;2023-05-22T00:07:43;100421.75;;;17.85;100.00
18813;BME280;9534;51.140;6.296;2023-05-22T00:11:46;100416.56;;;17.89;100.00
18813;BME280;9534;51.140;6.296;2023-05-22T00:15:50;100416.97;;;17.76;100.00
18813;BME280;9534;51.140;6.296;2023-05-22T00:19:55;100405.28;;;17.69;100.00
18813;BME280;9534;51.140;6.296;2023-05-22T00:24:03;100407.72;;;17.65;100.00
18813;BME280;9534;51.140;6.296;2023-05-22T00:28:06;100402.47;;;17.64;100.00
18813;BME280;9534;51.140;6.296;2023-05-22T00:32:09;100393.53;;;17.57;100.00
18813;BME280;9534;51.140;6.296;2023-05-22T00:36:15;100393.38;;;17.42;100.00
18813;BME280;9534;51.140;6.296;2023-05-22T00:40:19;100393.69;;;17.45;100.00
18813;BME280;9534;51.140;6.296;2023-05-22T00:44:23;100389.41;;;17.38;100.00
18813;BME280;9534;51.140;6.296;2023-05-22T00:48:26;100384.69;;;17.33;100.00
18813;BME280;9534;51.140;6.296;2023-05-22T00:52:30;100376.63;;;17.32;100.00
18813;BME280;9534;51.140;6.296;2023-05-22T00:56:33;100387.56;;;17.22;100.00
18813;BME280;9534;51.140;6.296;2023-05-22T01:00:37;100389.25;;;17.23;100.00
18813;BME280;9534;51.140;6.296;2023-05-22T01:04:41;100392.53;;;17.20;100.00
18813;BME280;9534;51.140;6.296;2023-05-22T01:08:48;100398.00;;;17.15;100.00
18813;BME280;9534;51.140;6.296;2023-05-22T01:12:54;100402.38;;;17.11;100.00
18813;BME280;9534;51.140;6.296;2023-05-22T01:17:01;100411.75;;;17.10;100.00
18813;BME280;9534;51.140;6.296;2023-05-22T01:21:12;100403.59;;;16.99;100.00
18813;BME280;9534;51.140;6.296;2023-05-22T01:25:26;100401.63;;;16.94;100.00
18813;BME280;9534;51.140;6.296;2023-05-22T01:29:44;100410.88;;;16.83;100.00
18813;BME280;9534;51.140;6.296;2023-05-22T01:33:50;100408.28;;;16.77;100.00
18813;BME280;9534;51.140;6.296;2023-05-22T01:37:53;100411.25;;;16.70;100.00
18813;BME280;9534;51.140;6.296;2023-05-22T01:41:57;100400.69;;;16.67;100.00
18813;BME280;9534;51.140;6.296;2023-05-22T01:46:03;100409.41;;;16.59;100.00
18813;BME280;9534;51.140;6.296;2023-05-22T01:50:08;100414.28;;;16.52;100.00
18813;BME280;9534;51.140;6.296;2023-05-22T01:54:13;100406.44;;;16.44;100.00
18813;BME280;9534;51.140;6.296;2023-05-22T01:58:20;100406.84;;;16.36;100.00
18813;BME280;9534;51.140;6.296;2023-05-22T02:02:27;100407.19;;;16.40;100.00
18813;BME280;9534;51.140;6.296;2023-05-22T02:06:51;100410.00;;;16.28;100.00
18813;BME280;9534;51.140;6.296;2023-05-22T02:10:56;100408.88;;;16.24;100.00
18813;BME280;9534;51.140;6.296;2023-05-22T02:14:59;100417.00;;;16.14;100.00
18813;BME280;9534;51.140;6.296;2023-05-22T02:19:04;100421.66;;;16.14;100.00
18813;BME280;9534;51.140;6.296;2023-05-22T02:23:11;100419.00;;;16.03;100.00
18813;BME280;9534;51.140;6.296;2023-05-22T02:27:15;100413.63;;;15.96;100.00
18813;BME280;9534;51.140;6.296;2023-05-22T02:31:18;100416.56;;;15.90;100.00
18813;BME280;9534;51.140;6.296;2023-05-22T02:35:22;100428.00;;;15.82;100.00
18813;BME280;9534;51.140;6.296;2023-05-22T02:39:27;100419.81;;;15.70;100.00
18813;BME280;9534;51.140;6.296;2023-05-22T02:43:30;100425.97;;;15.61;100.00
18813;BME280;9534;51.140;6.296;2023-05-22T02:47:33;100426.97;;;15.55;100.00
18813;BME280;9534;51.140;6.296;2023-05-22T02:51:36;100425.78;;;15.51;100.00
18813;BME280;9534;51.140;6.296;2023-05-22T02:55:41;100419.06;;;15.47;100.00
18813;BME280;9534;51.140;6.296;2023-05-22T02:59:44;100420.59;;;15.38;100.00
18813;BME280;9534;51.140;6.296;2023-05-22T03:03:47;100422.03;;;15.29;100.00
18813;BME280;9534;51.140;6.296;2023-05-22T03:07:51;100425.16;;;15.21;100.00
18813;BME280;9534;51.140;6.296;2023-05-22T03:11:56;100427.81;;;15.16;100.00
18813;BME280;9534;51.140;6.296;2023-05-22T03:16:00;100421.63;;;15.09;100.00
18813;BME280;9534;51.140;6.296;2023-05-22T03:20:04;100426.91;;;14.99;100.00
18813;BME280;9534;51.140;6.296;2023-05-22T03:24:09;100429.56;;;14.94;100.00
18813;BME280;9534;51.140;6.296;2023-05-22T03:28:14;100433.06;;;14.89;100.00
18813;BME280;9534;51.140;6.296;2023-05-22T03:32:17;100429.81;;;14.92;100.00
18813;BME280;9534;51.140;6.296;2023-05-22T03:36:21;100427.66;;;14.83;100.00
18813;BME280;9534;51.140;6.296;2023-05-22T03:40:24;100427.19;;;14.86;100.00
18813;BME280;9534;51.140;6.296;2023-05-22T03:44:29;100437.97;;;14.76;100.00
18813;BME280;9534;51.140;6.296;2023-05-22T03:48:34;100429.97;;;14.75;100.00
18813;BME280;9534;51.140;6.296;2023-05-22T03:52:40;100432.84;;;14.80;100.00
18813;BME280;9534;51.140;6.296;2023-05-22T03:56:44;100423.81;;;14.84;100.00
18813;BME280;9534;51.140;6.296;2023-05-22T04:00:48;100428.50;;;14.83;100.00
18813;BME280;9534;51.140;6.296;2023-05-22T04:04:53;100428.03;;;14.86;100.00
18813;BME280;9534;51.140;6.296;2023-05-22T04:08:57;100433.53;;;14.86;100.00
18813;BME280;9534;51.140;6.296;2023-05-22T04:13:01;100440.47;;;14.89;100.00
18813;BME280;9534;51.140;6.296;2023-05-22T04:17:05;100438.91;;;14.93;100.00
18813;BME280;9534;51.140;6.296;2023-05-22T04:21:08;100429.06;;;14.97;100.00
18813;BME280;9534;51.140;6.296;2023-05-22T04:25:12;100441.78;;;14.98;100.00
18813;BME280;9534;51.140;6.296;2023-05-22T04:29:15;100433.00;;;15.01;100.00
18813;BME280;9534;51.140;6.296;2023-05-22T04:33:24;100438.41;;;14.96;100.00
18813;BME280;9534;51.140;6.296;2023-05-22T04:37:27;100442.38;;;15.00;100.00
18813;BME280;9534;51.140;6.296;2023-05-22T04:41:32;100440.53;;;15.05;100.00
18813;BME280;9534;51.140;6.296;2023-05-22T04:45:35;100448.31;;;15.08;100.00
18813;BME280;9534;51.140;6.296;2023-05-22T04:49:41;100441.13;;;15.19;100.00
18813;BME280;9534;51.140;6.296;2023-05-22T04:53:45;100438.69;;;15.22;100.00
18813;BME280;9534;51.140;6.296;2023-05-22T04:58:08;100436.31;;;15.26;100.00
18813;BME280;9534;51.140;6.296;2023-05-22T05:02:30;100450.69;;;15.28;100.00
18813;BME280;9534;51.140;6.296;2023-05-22T05:06:35;100453.44;;;15.28;100.00
18813;BME280;9534;51.140;6.296;2023-05-22T05:10:39;100451.28;;;15.30;100.00
18813;BME280;9534;51.140;6.296;2023-05-22T05:14:42;100452.94;;;15.31;100.00
18813;BME280;9534;51.140;6.296;2023-05-22T05:18:52;100446.00;;;15.40;100.00
18813;BME280;9534;51.140;6.296;2023-05-22T05:22:57;100450.53;;;15.34;100.00
18813;BME280;9534;51.140;6.296;2023-05-22T05:27:01;100450.91;;;15.38;100.00
18813;BME280;9534;51.140;6.296;2023-05-22T05:31:05;100450.09;;;15.26;100.00
18813;BME280;9534;51.140;6.296;2023-05-22T05:35:21;100455.72;;;15.19;100.00
18813;BME280;9534;51.140;6.296;2023-05-22T05:39:37;100461.59;;;15.23;100.00
18813;BME280;9534;51.140;6.296;2023-05-22T05:43:42;100461.97;;;15.15;100.00
18813;BME280;9534;51.140;6.296;2023-05-22T05:47:46;100461.66;;;15.00;100.00
18813;BME280;9534;51.140;6.296;2023-05-22T05:51:50;100467.91;;;14.95;100.00
18813;BME280;9534;51.140;6.296;2023-05-22T05:55:57;100465.50;;;14.99;100.00
18813;BME280;9534;51.140;6.296;2023-05-22T06:00:03;100468.84;;;15.01;100.00
18813;BME280;9534;51.140;6.296;2023-05-22T06:04:15;100471.50;;;14.96;100.00
18813;BME280;9534;51.140;6.296;2023-05-22T06:08:21;100477.09;;;15.01;100.00
18813;BME280;9534;51.140;6.296;2023-05-22T06:12:28;100470.75;;;15.00;100.00
18813;BME280;9534;51.140;6.296;2023-05-22T06:16:31;100461.88;;;15.10;100.00
18813;BME280;9534;51.140;6.296;2023-05-22T06:20:35;100478.16;;;15.11;100.00
18813;BME280;9534;51.140;6.296;2023-05-22T06:24:41;100482.94;;;15.39;100.00
18813;BME280;9534;51.140;6.296;2023-05-22T06:28:50;100475.31;;;15.46;100.00
18813;BME280;9534;51.140;6.296;2023-05-22T06:32:56;100476.38;;;15.56;100.00
18813;BME280;9534;51.140;6.296;2023-05-22T06:37:00;100472.06;;;15.77;100.00
18813;BME280;9534;51.140;6.296;2023-05-22T06:41:10;100468.31;;;15.83;100.00
18813;BME280;9534;51.140;6.296;2023-05-22T06:45:15;100475.03;;;15.87;100.00
18813;BME280;9534;51.140;6.296;2023-05-22T06:49:37;100474.03;;;15.93;100.00
18813;BME280;9534;51.140;6.296;2023-05-22T06:53:40;100473.22;;;16.08;100.00
18813;BME280;9534;51.140;6.296;2023-05-22T06:57:48;100475.22;;;16.13;100.00
18813;BME280;9534;51.140;6.296;2023-05-22T07:01:53;100466.53;;;16.05;100.00
18813;BME280;9534;51.140;6.296;2023-05-22T07:06:08;100470.88;;;16.01;100.00
18813;BME280;9534;51.140;6.296;2023-05-22T07:10:13;100465.16;;;15.91;100.00
18813;BME280;9534;51.140;6.296;2023-05-22T07:14:16;100468.59;;;15.81;100.00
18813;BME280;9534;51.140;6.296;2023-05-22T07:18:21;100481.03;;;15.84;100.00
18813;BME280;9534;51.140;6.296;2023-05-22T07:22:25;100478.88;;;15.86;100.00
18813;BME280;9534;51.140;6.296;2023-05-22T07:26:30;100482.22;;;15.88;100.00
18813;BME280;9534;51.140;6.296;2023-05-22T07:30:39;100489.78;;;16.08;100.00
18813;BME280;9534;51.140;6.296;2023-05-22T07:34:44;100484.25;;;16.41;100.00
18813;BME280;9534;51.140;6.296;2023-05-22T07:38:47;100484.63;;;16.45;100.00
18813;BME280;9534;51.140;6.296;2023-05-22T07:42:50;100487.00;;;16.41;100.00
18813;BME280;9534;51.140;6.296;2023-05-22T07:46:54;100485.09;;;16.42;100.00
18813;BME280;9534;51.140;6.296;2023-05-22T07:51:00;100488.47;;;16.44;100.00
18813;BME280;9534;51.140;6.296;2023-05-22T07:55:05;100502.19;;;16.22;100.00
18813;BME280;9534;51.140;6.296;2023-05-22T07:59:12;100496.78;;;16.00;100.00
18813;BME280;9534;51.140;6.296;2023-05-22T08:03:16;100509.41;;;15.96;100.00
18813;BME280;9534;51.140;6.296;2023-05-22T08:07:23;100510.69;;;16.05;100.00
18813;BME280;9534;51.140;6.296;2023-05-22T08:11:26;100519.97;;;16.15;100.00
18813;BME280;9534;51.140;6.296;2023-05-22T08:15:29;100516.91;;;16.11;100.00
18813;BME280;9534;51.140;6.296;2023-05-22T08:19:32;100527.44;;;16.14;100.00
18813;BME280;9534;51.140;6.296;2023-05-22T08:23:37;100517.97;;;16.10;100.00
18813;BME280;9534;51.140;6.296;2023-05-22T08:27:40;100524.78;;;16.19;100.00
18813;BME280;9534;51.140;6.296;2023-05-22T08:31:43;100527.69;;;15.85;100.00
18813;BME280;9534;51.140;6.296;2023-05-22T08:35:47;100526.00;;;16.28;100.00
18813;BME280;9534;51.140;6.296;2023-05-22T08:39:52;100523.03;;;15.86;100.00
18813;BME280;9534;51.140;6.296;2023-05-22T08:43:55;100525.25;;;16.16;100.00
18813;BME280;9534;51.140;6.296;2023-05-22T08:47:59;100516.69;;;16.46;100.00
18813;BME280;9534;51.140;6.296;2023-05-22T08:52:09;100518.41;;;16.35;100.00
18813;BME280;9534;51.140;6.296;2023-05-22T08:56:15;100519.09;;;16.42;100.00
18813;BME280;9534;51.140;6.296;2023-05-22T09:00:19;100517.34;;;16.69;100.00
18813;BME280;9534;51.140;6.296;2023-05-22T09:04:23;100513.41;;;16.65;100.00
18813;BME280;9534;51.140;6.296;2023-05-22T09:08:29;100515.56;;;16.96;100.00
18813;BME280;9534;51.140;6.296;2023-05-22T09:12:33;100519.16;;;17.18;100.00
18813;BME280;9534;51.140;6.296;2023-05-22T09:16:43;100516.78;;;17.05;100.00
18813;BME280;9534;51.140;6.296;2023-05-22T09:20:47;100519.94;;;16.59;100.00
18813;BME280;9534;51.140;6.296;2023-05-22T09:24:50;100528.03;;;16.99;100.00
18813;BME280;9534;51.140;6.296;2023-05-22T09:28:56;100530.13;;;16.92;100.00
18813;BME280;9534;51.140;6.296;2023-05-22T09:33:01;100522.91;;;17.07;100.00
18813;BME280;9534;51.140;6.296;2023-05-22T09:37:05;100531.53;;;17.32;100.00
18813;BME280;9534;51.140;6.296;2023-05-22T09:41:09;100522.31;;;17.43;100.00
18813;BME280;9534;51.140;6.296;2023-05-22T09:45:13;100530.38;;;17.44;100.00
18813;BME280;9534;51.140;6.296;2023-05-22T09:49:21;100531.97;;;17.62;100.00
18813;BME280;9534;51.140;6.296;2023-05-22T09:53:25;100535.84;;;17.87;100.00
18813;BME280;9534;51.140;6.296;2023-05-22T09:57:30;100534.84;;;17.72;100.00
18813;BME280;9534;51.140;6.296;2023-05-22T10:01:36;100548.63;;;17.45;100.00
18813;BME280;9534;51.140;6.296;2023-05-22T10:05:42;100546.81;;;18.04;100.00
18813;BME280;9534;51.140;6.296;2023-05-22T10:09:50;100533.41;;;17.91;100.00
18813;BME280;9534;51.140;6.296;2023-05-22T10:13:54;100529.03;;;17.95;100.00
18813;BME280;9534;51.140;6.296;2023-05-22T10:18:00;100529.44;;;18.35;100.00
18813;BME280;9534;51.140;6.296;2023-05-22T10:22:03;100532.28;;;18.40;100.00
18813;BME280;9534;51.140;6.296;2023-05-22T10:26:07;100526.03;;;18.28;100.00
18813;BME280;9534;51.140;6.296;2023-05-22T10:30:17;100531.28;;;18.24;100.00
18813;BME280;9534;51.140;6.296;2023-05-22T10:34:46;100533.25;;;18.29;100.00
18813;BME280;9534;51.140;6.296;2023-05-22T10:38:55;100534.13;;;18.08;100.00
18813;BME280;9534;51.140;6.296;2023-05-22T10:43:04;100528.13;;;18.16;100.00
18813;BME280;9534;51.140;6.296;2023-05-22T10:47:07;100530.84;;;18.11;100.00
18813;BME280;9534;51.140;6.296;2023-05-22T10:51:18;100543.97;;;18.20;100.00
18813;BME280;9534;51.140;6.296;2023-05-22T10:55:21;100536.84;;;18.03;100.00
18813;BME280;9534;51.140;6.296;2023-05-22T10:59:32;100539.72;;;18.13;100.00
18813;BME280;9534;51.140;6.296;2023-05-22T11:03:49;100539.94;;;18.06;100.00
18813;BME280;9534;51.140;6.296;2023-05-22T11:07:59;100535.66;;;18.47;100.00
18813;BME280;9534;51.140;6.296;2023-05-22T11:12:11;100540.72;;;18.55;100.00
18813;BME280;9534;51.140;6.296;2023-05-22T11:16:17;100528.00;;;18.59;100.00
18813;BME280;9534;51.140;6.296;2023-05-22T11:20:21;100514.56;;;19.23;100.00
18813;BME280;9534;51.140;6.296;2023-05-22T11:24:32;100511.47;;;19.71;100.00
18813;BME280;9534;51.140;6.296;2023-05-22T11:28:36;100504.78;;;19.57;100.00
18813;BME280;9534;51.140;6.296;2023-05-22T11:32:40;100498.72;;;19.80;100.00
18813;BME280;9534;51.140;6.296;2023-05-22T11:36:46;100514.91;;;20.03;100.00
18813;BME280;9534;51.140;6.296;2023-05-22T11:40:51;100511.97;;;19.48;100.00
18813;BME280;9534;51.140;6.296;2023-05-22T11:44:55;100498.88;;;20.40;100.00
18813;BME280;9534;51.140;6.296;2023-05-22T11:48:59;100492.38;;;21.29;100.00
18813;BME280;9534;51.140;6.296;2023-05-22T11:53:02;100484.75;;;22.08;100.00
18813;BME280;9534;51.140;6.296;2023-05-22T11:57:07;100483.19;;;22.30;100.00
18813;BME280;9534;51.140;6.296;2023-05-22T12:01:10;100483.88;;;22.17;100.00
18813;BME280;9534;51.140;6.296;2023-05-22T12:05:14;100484.84;;;23.91;100.00
18813;BME280;9534;51.140;6.296;2023-05-22T12:09:19;100480.03;;;23.97;100.00
18813;BME280;9534;51.140;6.296;2023-05-22T12:13:25;100484.50;;;23.74;100.00
18813;BME280;9534;51.140;6.296;2023-05-22T12:17:28;100468.38;;;23.25;100.00
18813;BME280;9534;51.140;6.296;2023-05-22T12:21:32;100462.75;;;22.40;100.00
18813;BME280;9534;51.140;6.296;2023-05-22T12:25:36;100458.44;;;23.79;100.00
18813;BME280;9534;51.140;6.296;2023-05-22T12:29:41;100466.53;;;24.54;100.00
18813;BME280;9534;51.140;6.296;2023-05-22T12:33:44;100463.13;;;24.39;100.00
18813;BME280;9534;51.140;6.296;2023-05-22T12:37:47;100461.25;;;24.98;100.00
18813;BME280;9534;51.140;6.296;2023-05-22T12:41:51;100454.88;;;24.66;100.00
18813;BME280;9534;51.140;6.296;2023-05-22T12:45:56;100459.06;;;24.31;100.00
18813;BME280;9534;51.140;6.296;2023-05-22T12:50:03;100462.72;;;25.09;100.00
18813;BME280;9534;51.140;6.296;2023-05-22T12:54:06;100461.28;;;25.11;100.00
18813;BME280;9534;51.140;6.296;2023-05-22T12:58:10;100454.78;;;24.84;100.00
18813;BME280;9534;51.140;6.296;2023-05-22T13:02:18;100466.09;;;24.47;100.00
18813;BME280;9534;51.140;6.296;2023-05-22T13:06:21;100458.75;;;24.33;100.00
18813;BME280;9534;51.140;6.296;2023-05-22T13:10:25;100455.59;;;25.43;100.00
18813;BME280;9534;51.140;6.296;2023-05-22T13:14:28;100456.31;;;25.22;100.00
18813;BME280;9534;51.140;6.296;2023-05-22T13:18:33;100441.72;;;25.52;100.00
18813;BME280;9534;51.140;6.296;2023-05-22T13:22:37;100450.31;;;25.28;100.00
18813;BME280;9534;51.140;6.296;2023-05-22T13:26:41;100441.97;;;25.10;100.00
18813;BME280;9534;51.140;6.296;2023-05-22T13:30:44;100445.91;;;24.96;100.00
18813;BME280;9534;51.140;6.296;2023-05-22T13:34:49;100446.53;;;25.06;100.00
18813;BME280;9534;51.140;6.296;2023-05-22T13:38:52;100442.59;;;25.20;100.00
18813;BME280;9534;51.140;6.296;2023-05-22T13:42:56;100443.41;;;24.94;100.00
18813;BME280;9534;51.140;6.296;2023-05-22T13:46:59;100438.22;;;24.74;100.00
18813;BME280;9534;51.140;6.296;2023-05-22T13:51:05;100433.06;;;24.31;100.00
18813;BME280;9534;51.140;6.296;2023-05-22T13:55:08;100432.63;;;24.24;100.00
18813;BME280;9534;51.140;6.296;2023-05-22T13:59:12;100432.09;;;24.54;100.00
18813;BME280;9534;51.140;6.296;2023-05-22T14:03:15;100440.06;;;24.65;100.00
18813;BME280;9534;51.140;6.296;2023-05-22T14:07:21;100437.63;;;23.90;100.00
18813;BME280;9534;51.140;6.296;2023-05-22T14:11:25;100439.19;;;23.77;100.00
18813;BME280;9534;51.140;6.296;2023-05-22T14:15:29;100441.53;;;24.07;100.00
18813;BME280;9534;51.140;6.296;2023-05-22T14:19:33;100441.69;;;23.97;100.00
18813;BME280;9534;51.140;6.296;2023-05-22T14:23:39;100439.97;;;24.01;100.00
18813;BME280;9534;51.140;6.296;2023-05-22T14:27:42;100438.97;;;24.29;100.00
18813;BME280;9534;51.140;6.296;2023-05-22T14:31:46;100436.63;;;25.54;100.00
18813;BME280;9534;51.140;6.296;2023-05-22T14:35:52;100447.16;;;26.33;100.00
18813;BME280;9534;51.140;6.296;2023-05-22T14:39:57;100453.91;;;25.02;100.00
18813;BME280;9534;51.140;6.296;2023-05-22T14:44:00;100434.81;;;24.91;100.00
18813;BME280;9534;51.140;6.296;2023-05-22T14:48:04;100441.75;;;24.93;100.00
18813;BME280;9534;51.140;6.296;2023-05-22T14:52:10;100435.97;;;25.03;100.00
18813;BME280;9534;51.140;6.296;2023-05-22T14:56:15;100430.38;;;25.43;100.00
18813;BME280;9534;51.140;6.296;2023-05-22T15:00:19;100433.09;;;25.48;100.00
18813;BME280;9534;51.140;6.296;2023-05-22T15:04:22;100422.91;;;24.99;100.00
18813;BME280;9534;51.140;6.296;2023-05-22T15:08:26;100424.34;;;25.23;100.00
18813;BME280;9534;51.140;6.296;2023-05-22T15:12:30;100418.91;;;24.86;100.00
18813;BME280;9534;51.140;6.296;2023-05-22T15:16:34;100415.31;;;24.54;100.00
18813;BME280;9534;51.140;6.296;2023-05-22T15:20:37;100416.88;;;25.05;100.00
18813;BME280;9534;51.140;6.296;2023-05-22T15:24:40;100406.31;;;25.56;100.00
18813;BME280;9534;51.140;6.296;2023-05-22T15:28:46;100413.44;;;25.08;100.00
18813;BME280;9534;51.140;6.296;2023-05-22T15:32:49;100395.75;;;25.26;100.00
18813;BME280;9534;51.140;6.296;2023-05-22T15:36:52;100408.38;;;24.97;100.00
18813;BME280;9534;51.140;6.296;2023-05-22T15:40:56;100408.03;;;24.71;100.00
18813;BME280;9534;51.140;6.296;2023-05-22T15:45:02;100409.50;;;26.12;100.00
18813;BME280;9534;51.140;6.296;2023-05-22T15:49:06;100403.78;;;24.87;100.00
18813;BME280;9534;51.140;6.296;2023-05-22T15:53:10;100396.94;;;24.66;100.00
18813;BME280;9534;51.140;6.296;2023-05-22T15:57:15;100391.34;;;24.93;100.00
18813;BME280;9534;51.140;6.296;2023-05-22T16:01:19;100405.28;;;25.25;100.00
18813;BME280;9534;51.140;6.296;2023-05-22T16:05:22;100396.41;;;24.64;100.00
18813;BME280;9534;51.140;6.296;2023-05-22T16:09:26;100399.03;;;25.01;100.00
18813;BME280;9534;51.140;6.296;2023-05-22T16:13:32;100391.13;;;24.76;100.00
18813;BME280;9534;51.140;6.296;2023-05-22T16:17:38;100397.56;;;24.63;100.00
18813;BME280;9534;51.140;6.296;2023-05-22T16:21:41;100402.75;;;24.83;100.00
18813;BME280;9534;51.140;6.296;2023-05-22T16:25:45;100402.84;;;24.46;100.00
18813;BME280;9534;51.140;6.296;2023-05-22T16:29:51;100403.38;;;23.79;100.00
18813;BME280;9534;51.140;6.296;2023-05-22T16:33:55;100406.72;;;23.81;100.00
18813;BME280;9534;51.140;6.296;2023-05-22T16:37:59;100400.84;;;22.94;100.00
18813;BME280;9534;51.140;6.296;2023-05-22T16:42:03;100415.13;;;23.16;100.00
18813;BME280;9534;51.140;6.296;2023-05-22T16:46:06;100411.16;;;23.22;100.00
18813;BME280;9534;51.140;6.296;2023-05-22T16:50:10;100411.69;;;23.01;100.00
18813;BME280;9534;51.140;6.296;2023-05-22T16:54:14;100417.00;;;22.74;100.00
18813;BME280;9534;51.140;6.296;2023-05-22T16:58:18;100414.78;;;22.71;100.00
18813;BME280;9534;51.140;6.296;2023-05-22T17:02:22;100427.31;;;22.45;100.00
18813;BME280;9534;51.140;6.296;2023-05-22T17:06:27;100421.25;;;22.66;100.00
18813;BME280;9534;51.140;6.296;2023-05-22T17:10:30;100405.59;;;22.37;100.00
18813;BME280;9534;51.140;6.296;2023-05-22T17:14:34;100419.34;;;22.29;100.00
18813;BME280;9534;51.140;6.296;2023-05-22T17:18:37;100411.53;;;21.97;100.00
18813;BME280;9534;51.140;6.296;2023-05-22T17:22:41;100410.94;;;22.00;100.00
18813;BME280;9534;51.140;6.296;2023-05-22T17:26:45;100429.34;;;22.01;100.00
18813;BME280;9534;51.140;6.296;2023-05-22T17:30:49;100430.47;;;22.00;100.00
18813;BME280;9534;51.140;6.296;2023-05-22T17:34:52;100449.91;;;22.10;100.00
18813;BME280;9534;51.140;6.296;2023-05-22T17:38:57;100457.84;;;21.88;100.00
18813;BME280;9534;51.140;6.296;2023-05-22T17:43:00;100461.31;;;21.60;100.00
18813;BME280;9534;51.140;6.296;2023-05-22T17:47:04;100458.03;;;21.48;100.00
18813;BME280;9534;51.140;6.296;2023-05-22T17:51:08;100466.56;;;20.99;100.00
18813;BME280;9534;51.140;6.296;2023-05-22T17:55:13;100461.56;;;20.86;100.00
18813;BME280;9534;51.140;6.296;2023-05-22T17:59:16;100467.41;;;20.84;100.00
18813;BME280;9534;51.140;6.296;2023-05-22T18:03:20;100464.91;;;20.73;100.00
18813;BME280;9534;51.140;6.296;2023-05-22T18:07:23;100473.00;;;20.69;100.00
18813;BME280;9534;51.140;6.296;2023-05-22T18:11:28;100482.72;;;20.57;100.00
18813;BME280;9534;51.140;6.296;2023-05-22T18:15:31;100482.16;;;20.60;100.00
18813;BME280;9534;51.140;6.296;2023-05-22T18:19:35;100484.94;;;20.85;100.00
18813;BME280;9534;51.140;6.296;2023-05-22T18:23:40;100480.44;;;21.23;100.00
18813;BME280;9534;51.140;6.296;2023-05-22T18:27:45;100481.97;;;21.49;100.00
18813;BME280;9534;51.140;6.296;2023-05-22T18:31:48;100475.59;;;21.49;100.00
18813;BME280;9534;51.140;6.296;2023-05-22T18:35:53;100484.91;;;21.15;100.00
18813;BME280;9534;51.140;6.296;2023-05-22T18:39:57;100494.31;;;21.28;100.00
18813;BME280;9534;51.140;6.296;2023-05-22T18:44:02;100500.47;;;21.20;100.00
18813;BME280;9534;51.140;6.296;2023-05-22T18:48:06;100493.56;;;20.88;100.00
18813;BME280;9534;51.140;6.296;2023-05-22T18:52:10;100508.84;;;20.86;100.00
18813;BME280;9534;51.140;6.296;2023-05-22T18:56:13;100515.53;;;20.80;100.00
18813;BME280;9534;51.140;6.296;2023-05-22T19:00:19;100512.19;;;20.73;100.00
18813;BME280;9534;51.140;6.296;2023-05-22T19:04:23;100525.56;;;20.46;100.00
18813;BME280;9534;51.140;6.296;2023-05-22T19:08:26;100530.00;;;20.52;100.00
18813;BME280;9534;51.140;6.296;2023-05-22T19:12:29;100532.78;;;20.32;100.00
18813;BME280;9534;51.140;6.296;2023-05-22T19:16:34;100541.56;;;19.99;100.00
18813;BME280;9534;51.140;6.296;2023-05-22T19:20:37;100552.59;;;19.74;100.00
18813;BME280;9534;51.140;6.296;2023-05-22T19:24:42;100563.00;;;19.42;100.00
18813;BME280;9534;51.140;6.296;2023-05-22T19:28:45;100563.50;;;19.34;100.00
18813;BME280;9534;51.140;6.296;2023-05-22T19:32:50;100571.78;;;19.24;100.00
18813;BME280;9534;51.140;6.296;2023-05-22T19:36:56;100579.97;;;19.09;100.00
18813;BME280;9534;51.140;6.296;2023-05-22T19:40:59;100581.59;;;19.05;100.00
18813;BME280;9534;51.140;6.296;2023-05-22T19:45:03;100587.56;;;18.87;100.00
18813;BME280;9534;51.140;6.296;2023-05-22T19:49:09;100590.75;;;18.69;100.00
18813;BME280;9534;51.140;6.296;2023-05-22T19:53:12;100600.66;;;18.61;100.00
18813;BME280;9534;51.140;6.296;2023-05-22T19:57:15;100606.63;;;18.48;100.00
18813;BME280;9534;51.140;6.296;2023-05-22T20:01:18;100615.44;;;18.45;100.00
18813;BME280;9534;51.140;6.296;2023-05-22T20:05:23;100618.31;;;18.28;100.00
18813;BME280;9534;51.140;6.296;2023-05-22T20:09:26;100616.75;;;18.16;100.00
18813;BME280;9534;51.140;6.296;2023-05-22T20:13:30;100621.72;;;18.14;100.00
18813;BME280;9534;51.140;6.296;2023-05-22T20:17:33;100636.59;;;18.08;100.00
18813;BME280;9534;51.140;6.296;2023-05-22T20:21:39;100637.84;;;17.95;100.00
18813;BME280;9534;51.140;6.296;2023-05-22T20:25:43;100648.56;;;17.87;100.00
18813;BME280;9534;51.140;6.296;2023-05-22T20:29:46;100655.34;;;17.79;100.00
18813;BME280;9534;51.140;6.296;2023-05-22T20:33:50;100652.22;;;17.71;100.00
18813;BME280;9534;51.140;6.296;2023-05-22T20:37:54;100664.28;;;17.65;100.00
18813;BME280;9534;51.140;6.296;2023-05-22T20:42:00;100668.00;;;17.54;100.00
18813;BME280;9534;51.140;6.296;2023-05-22T20:46:03;100666.19;;;17.43;100.00
18813;BME280;9534;51.140;6.296;2023-05-22T20:50:07;100678.16;;;17.32;100.00
18813;BME280;9534;51.140;6.296;2023-05-22T20:54:12;100669.19;;;17.25;100.00
18813;BME280;9534;51.140;6.296;2023-05-22T20:58:15;100681.84;;;17.21;100.00
18813;BME280;9534;51.140;6.296;2023-05-22T21:02:20;100673.38;;;17.11;100.00
18813;BME280;9534;51.140;6.296;2023-05-22T21:06:23;100680.75;;;17.06;100.00
18813;BME280;9534;51.140;6.296;2023-05-22T21:10:28;100679.25;;;16.98;100.00
18813;BME280;9534;51.140;6.296;2023-05-22T21:14:31;100683.75;;;16.88;100.00
18813;BME280;9534;51.140;6.296;2023-05-22T21:18:34;100677.91;;;16.84;100.00
18813;BME280;9534;51.140;6.296;2023-05-22T21:22:37;100677.63;;;16.69;100.00